createdAt,value
2022-12-18T00:01:41.832Z,70.80
2022-12-18T00:04:14.171Z,70.87
2022-12-18T00:06:40.860Z,70.58
2022-12-18T00:09:08.282Z,71.02
2022-12-18T00:11:34.732Z,71.13
2022-12-18T00:14:01.288Z,71.12
2022-12-18T00:16:28.745Z,71.73
2022-12-18T00:18:58.381Z,71.93
2022-12-18T00:21:24.889Z,71.13
2022-12-18T00:23:51.420Z,70.40
2022-12-18T00:26:22.976Z,70.07
2022-12-18T00:28:52.678Z,70.72
2022-12-18T00:31:20.725Z,70.90
2022-12-18T00:33:47.387Z,70.94
2022-12-18T00:36:18.428Z,71.39
2022-12-18T00:38:45.412Z,71.72
2022-12-18T00:41:12.931Z,70.97
2022-12-18T00:43:40.020Z,71.18
2022-12-18T00:46:07.210Z,71.17
2022-12-18T00:48:33.799Z,71.60
2022-12-18T00:51:00.277Z,71.61
2022-12-18T00:53:28.102Z,72.12
2022-12-18T00:55:56.145Z,72.21
2022-12-18T00:58:22.666Z,71.26
2022-12-18T01:00:49.234Z,71.39
2022-12-18T01:03:15.873Z,70.98
2022-12-18T01:05:44.138Z,71.50
2022-12-18T01:08:11.719Z,71.43
2022-12-18T01:10:42.560Z,70.96
2022-12-18T01:13:09.279Z,70.99
2022-12-18T01:15:36.387Z,70.67
2022-12-18T01:18:02.963Z,69.90
2022-12-18T01:20:29.483Z,68.05
2022-12-18T01:22:55.953Z,67.71
2022-12-18T01:25:22.446Z,68.46
2022-12-18T01:27:52.517Z,69.58
2022-12-18T01:30:19.065Z,70.22
2022-12-18T01:32:45.578Z,70.54
2022-12-18T01:35:12.079Z,70.50
2022-12-18T01:37:38.566Z,69.27
2022-12-18T01:40:05.641Z,68.78
2022-12-18T01:42:32.116Z,70.03
2022-12-18T01:45:08.258Z,70.97
2022-12-18T01:47:37.381Z,70.58
2022-12-18T01:50:07.309Z,71.10
2022-12-18T01:52:34.315Z,71.97
2022-12-18T01:55:01.420Z,72.64
2022-12-18T01:57:29.051Z,73.46
2022-12-18T01:59:58.285Z,72.67
2022-12-18T02:02:27.771Z,73.45
2022-12-18T02:04:54.419Z,73.63
2022-12-18T02:07:23.065Z,73.56
2022-12-18T02:09:55.710Z,73.24
2022-12-18T02:12:23.873Z,73.15
2022-12-18T02:14:55.037Z,73.23
2022-12-18T02:17:22.968Z,73.38
2022-12-18T02:19:59.500Z,73.44
2022-12-18T02:22:30.667Z,72.92
2022-12-18T02:25:05.213Z,72.90
2022-12-18T02:27:34.669Z,73.04
2022-12-18T02:30:02.447Z,72.66
2022-12-18T02:32:31.950Z,72.47
2022-12-18T02:34:59.363Z,72.35
2022-12-18T02:37:29.139Z,71.09
2022-12-18T02:39:57.161Z,70.50
2022-12-18T02:42:24.589Z,71.75
2022-12-18T02:44:55.893Z,72.80
2022-12-18T02:47:27.581Z,72.42
2022-12-18T02:50:03.563Z,72.35
2022-12-18T02:52:36.277Z,72.60
2022-12-18T02:55:13.953Z,72.80
2022-12-18T02:57:45.236Z,73.18
2022-12-18T03:00:15.599Z,73.43
2022-12-18T03:02:47.220Z,73.63
2022-12-18T03:05:15.873Z,71.70
2022-12-18T03:07:46.985Z,69.22
2022-12-18T03:10:15.360Z,68.66
2022-12-18T03:12:45.836Z,68.33
2022-12-18T03:15:17.864Z,69.06
2022-12-18T03:17:47.661Z,69.52
2022-12-18T03:20:16.046Z,68.49
2022-12-18T03:22:43.937Z,69.00
2022-12-18T03:25:11.745Z,68.38
2022-12-18T03:27:42.237Z,68.13
2022-12-18T03:30:13.245Z,68.21
2022-12-18T03:32:45.489Z,69.20
2022-12-18T03:35:14.223Z,68.83
2022-12-18T03:37:41.153Z,69.75
2022-12-18T03:40:09.123Z,69.26
2022-12-18T03:42:43.336Z,68.36
2022-12-18T03:45:14.649Z,67.08
2022-12-18T03:47:50.616Z,68.96
2022-12-18T03:50:20.461Z,69.25
2022-12-18T03:52:51.164Z,68.86
2022-12-18T03:55:18.615Z,69.20
2022-12-18T03:57:48.907Z,70.73
2022-12-18T04:00:17.276Z,71.53
2022-12-18T04:03:05.842Z,71.15
2022-12-18T04:05:41.118Z,70.68
2022-12-18T04:08:08.107Z,71.35
2022-12-18T04:10:38.039Z,71.21
2022-12-18T04:13:04.770Z,71.16
2022-12-18T04:15:32.836Z,72.20
2022-12-18T04:17:59.489Z,72.56
2022-12-18T04:20:33.881Z,72.10
2022-12-18T04:23:00.362Z,71.94
2022-12-18T04:25:27.335Z,71.11
2022-12-18T04:28:04.728Z,69.70
2022-12-18T04:30:31.264Z,69.58
2022-12-18T04:32:57.759Z,68.79
2022-12-18T04:35:24.647Z,69.95
2022-12-18T04:37:52.531Z,71.33
2022-12-18T04:40:19.047Z,72.17
2022-12-18T04:42:47.251Z,72.62
2022-12-18T04:45:13.883Z,71.83
2022-12-18T04:47:40.361Z,70.77
2022-12-18T04:50:07.196Z,69.68
2022-12-18T04:52:33.695Z,70.88
2022-12-18T04:55:01.651Z,72.53
2022-12-18T04:57:28.181Z,72.63
2022-12-18T04:59:54.723Z,73.53
2022-12-18T05:02:21.335Z,73.54
2022-12-18T05:04:47.861Z,73.86
2022-12-18T05:07:14.312Z,73.77
2022-12-18T05:09:40.800Z,73.63
2022-12-18T05:12:09.553Z,72.85
2022-12-18T05:14:36.034Z,72.25
2022-12-18T05:17:02.504Z,72.89
2022-12-18T05:19:28.995Z,72.98
2022-12-18T05:21:55.472Z,73.30
2022-12-18T05:24:21.986Z,73.55
2022-12-18T05:26:48.477Z,73.64
2022-12-18T05:29:16.385Z,73.84
2022-12-18T05:31:42.981Z,73.59
2022-12-18T05:34:10.141Z,73.78
2022-12-18T05:36:37.682Z,72.51
2022-12-18T05:39:04.374Z,71.80
2022-12-18T05:41:31.073Z,72.95
2022-12-18T05:43:59.386Z,72.63
2022-12-18T05:46:27.404Z,72.47
2022-12-18T05:48:53.966Z,72.80
2022-12-18T05:51:21.418Z,73.01
2022-12-18T05:53:48.146Z,73.71
2022-12-18T05:56:16.573Z,73.33
2022-12-18T05:58:43.415Z,71.74
2022-12-18T06:01:11.926Z,71.30
2022-12-18T06:03:40.419Z,68.78
2022-12-18T06:06:13.903Z,70.23
2022-12-18T06:08:44.501Z,69.52
2022-12-18T06:11:12.903Z,69.45
2022-12-18T06:13:39.954Z,70.61
2022-12-18T06:16:06.995Z,69.29
2022-12-18T06:18:33.691Z,68.81
2022-12-18T06:21:01.565Z,69.76
2022-12-18T06:23:28.239Z,70.82
2022-12-18T06:25:54.793Z,70.08
2022-12-18T06:28:21.525Z,68.73
2022-12-18T06:30:49.194Z,67.60
2022-12-18T06:33:16.072Z,69.25
2022-12-18T06:35:42.561Z,69.81
2022-12-18T06:38:10.425Z,70.83
2022-12-18T06:40:38.177Z,71.15
2022-12-18T06:43:04.640Z,71.01
2022-12-18T06:45:31.211Z,69.32
2022-12-18T06:47:57.778Z,68.82
2022-12-18T06:50:25.555Z,69.36
2022-12-18T06:52:52.012Z,68.90
2022-12-18T06:55:19.933Z,70.14
2022-12-18T06:57:46.456Z,70.27
2022-12-18T07:00:13.321Z,70.06
2022-12-18T07:02:40.061Z,71.49
2022-12-18T07:05:10.681Z,72.47
2022-12-18T07:07:37.955Z,72.80
2022-12-18T07:10:04.862Z,73.16
2022-12-18T07:12:32.734Z,72.99
2022-12-18T07:14:59.165Z,73.13
2022-12-18T07:17:25.695Z,72.02
2022-12-18T07:19:52.284Z,70.21
2022-12-18T07:22:18.817Z,69.56
2022-12-18T07:24:45.325Z,69.60
2022-12-18T07:27:11.833Z,70.13
2022-12-18T07:29:39.653Z,70.09
2022-12-18T07:32:06.371Z,69.73
2022-12-18T07:34:32.909Z,70.06
2022-12-18T07:36:59.482Z,70.97
2022-12-18T07:39:25.931Z,71.54
2022-12-18T07:42:11.128Z,72.02
2022-12-18T07:44:41.537Z,70.95
2022-12-18T07:47:11.985Z,70.69
2022-12-18T07:49:38.911Z,70.36
2022-12-18T07:52:05.498Z,69.26
2022-12-18T07:54:31.997Z,68.89
2022-12-18T07:56:58.506Z,68.47
2022-12-18T07:59:25.006Z,68.33
2022-12-18T08:01:53.005Z,68.11
2022-12-18T08:04:19.697Z,69.15
2022-12-18T08:06:48.278Z,69.97
2022-12-18T08:09:15.203Z,71.50
2022-12-18T08:11:41.806Z,71.60
2022-12-18T08:14:08.264Z,71.27
2022-12-18T08:16:34.834Z,70.57
2022-12-18T08:19:02.730Z,70.42
2022-12-18T08:21:30.115Z,70.65
2022-12-18T08:23:57.552Z,69.95
2022-12-18T08:26:25.162Z,68.35
2022-12-18T08:28:51.751Z,68.19
2022-12-18T08:31:18.641Z,67.80
2022-12-18T08:33:45.189Z,67.83
2022-12-18T08:36:13.113Z,67.57
2022-12-18T08:38:39.828Z,67.95
2022-12-18T08:41:07.342Z,67.21
2022-12-18T08:43:53.179Z,67.84
2022-12-18T08:46:20.395Z,68.32
2022-12-18T08:48:47.219Z,67.46
2022-12-18T08:51:16.669Z,67.34
2022-12-18T08:53:43.376Z,67.50
2022-12-18T08:56:10.120Z,67.83
2022-12-18T08:58:36.641Z,68.54
2022-12-18T09:01:04.012Z,70.04
2022-12-18T09:03:30.576Z,70.68
2022-12-18T09:05:57.287Z,71.31
2022-12-18T09:08:25.121Z,70.97
2022-12-18T09:10:51.775Z,70.93
2022-12-18T09:13:18.827Z,71.04
2022-12-18T09:15:46.300Z,71.05
2022-12-18T09:18:13.189Z,71.43
2022-12-18T09:20:39.824Z,71.49
2022-12-18T09:23:06.735Z,71.56
2022-12-18T09:25:36.684Z,69.40
2022-12-18T09:28:03.918Z,69.06
2022-12-18T09:30:30.421Z,68.45
2022-12-18T09:32:57.009Z,68.14
2022-12-18T09:35:23.533Z,68.93
2022-12-18T09:37:50.001Z,68.70
2022-12-18T09:40:17.202Z,67.90
2022-12-18T09:42:46.565Z,67.05
2022-12-18T09:45:14.487Z,66.86
2022-12-18T09:47:42.147Z,67.06
2022-12-18T09:50:18.190Z,66.27
2022-12-18T09:52:46.505Z,65.72
2022-12-18T09:55:19.362Z,66.61
2022-12-18T09:57:50.293Z,68.23
2022-12-18T10:00:19.476Z,68.84
2022-12-18T10:02:46.538Z,69.45
2022-12-18T10:05:15.214Z,68.85
2022-12-18T10:07:47.375Z,68.63
2022-12-18T10:10:20.378Z,68.41
2022-12-18T10:12:57.255Z,67.35
2022-12-18T10:15:31.292Z,67.56
2022-12-18T10:18:01.880Z,67.61
2022-12-18T10:20:33.029Z,67.36
2022-12-18T10:23:03.780Z,68.18
2022-12-18T10:25:33.030Z,67.90
2022-12-18T10:28:07.663Z,66.97
2022-12-18T10:30:34.168Z,66.00
2022-12-18T10:33:01.495Z,66.61
2022-12-18T10:35:28.125Z,68.00
2022-12-18T10:38:02.074Z,68.94
2022-12-18T10:40:30.766Z,69.16
2022-12-18T10:43:13.479Z,69.19
2022-12-18T10:45:40.444Z,68.54
2022-12-18T10:48:18.232Z,69.08
2022-12-18T10:51:10.290Z,69.25
2022-12-18T10:53:35.704Z,67.87
2022-12-18T10:56:03.097Z,67.03
2022-12-18T10:58:34.912Z,66.11
2022-12-18T11:01:10.465Z,65.16
2022-12-18T11:03:38.052Z,65.00
2022-12-18T11:06:06.556Z,64.73
2022-12-18T11:08:33.177Z,64.23
2022-12-18T11:10:59.802Z,63.74
2022-12-18T11:13:27.649Z,64.37
2022-12-18T11:15:55.755Z,64.12
2022-12-18T11:18:26.494Z,64.01
2022-12-18T11:20:58.541Z,64.13
2022-12-18T11:23:25.635Z,64.19
2022-12-18T11:25:54.163Z,65.26
2022-12-18T11:28:28.434Z,66.53
2022-12-18T11:31:10.260Z,66.77
2022-12-18T11:33:39.327Z,67.85
2022-12-18T11:36:08.960Z,67.10
2022-12-18T11:38:36.756Z,67.57
2022-12-18T11:41:06.381Z,68.48
2022-12-18T11:43:35.816Z,68.40
2022-12-18T11:46:05.163Z,68.11
2022-12-18T11:48:34.311Z,68.39
2022-12-18T11:51:04.688Z,69.02
2022-12-18T11:53:31.354Z,68.80
2022-12-18T11:56:03.393Z,68.46
2022-12-18T11:58:43.938Z,68.07
2022-12-18T12:01:16.187Z,68.06
2022-12-18T12:04:00.244Z,68.09
2022-12-18T12:06:34.957Z,67.71
2022-12-18T12:09:07.393Z,67.50
2022-12-18T12:11:38.758Z,67.67
2022-12-18T12:14:13.331Z,67.34
2022-12-18T12:16:45.178Z,67.52
2022-12-18T12:19:19.206Z,66.33
2022-12-18T12:21:50.050Z,65.18
2022-12-18T12:24:24.038Z,64.19
2022-12-18T12:26:55.127Z,64.20
2022-12-18T12:29:28.305Z,65.05
2022-12-18T12:32:01.606Z,65.90
2022-12-18T12:34:35.410Z,66.13
2022-12-18T12:37:12.404Z,66.55
2022-12-18T12:39:41.164Z,67.19
2022-12-18T12:42:30.699Z,67.06
2022-12-18T12:44:59.739Z,67.25
2022-12-18T12:47:29.368Z,67.05
2022-12-18T12:49:57.889Z,67.40
2022-12-18T12:52:29.784Z,67.49
2022-12-18T12:54:57.720Z,67.34
2022-12-18T12:57:28.152Z,67.06
2022-12-18T12:59:59.363Z,66.87
2022-12-18T13:02:30.730Z,67.36
2022-12-18T13:04:58.907Z,67.41
2022-12-18T13:07:28.811Z,67.70
2022-12-18T13:10:13.512Z,66.79
2022-12-18T13:12:58.592Z,66.23
2022-12-18T13:15:27.110Z,66.38
2022-12-18T13:18:11.550Z,66.74
2022-12-18T13:20:39.747Z,67.16
2022-12-18T13:23:21.182Z,66.89
2022-12-18T13:25:50.508Z,67.49
2022-12-18T13:28:17.529Z,67.53
2022-12-18T13:30:53.287Z,67.52
2022-12-18T13:36:36.102Z,67.76
2022-12-18T13:39:32.905Z,67.21
2022-12-18T13:42:43.627Z,67.05
2022-12-18T13:45:25.517Z,67.83
2022-12-18T13:47:53.541Z,67.58
2022-12-18T13:50:22.935Z,66.97
2022-12-18T13:52:49.598Z,67.35
2022-12-18T13:55:18.873Z,66.72
2022-12-18T13:57:45.405Z,66.03
2022-12-18T14:00:23.921Z,65.98
2022-12-18T14:02:51.317Z,65.99
2022-12-18T14:05:24.466Z,66.73
2022-12-18T14:07:51.576Z,67.94
2022-12-18T14:10:44.331Z,68.03
2022-12-18T14:13:07.651Z,67.70
2022-12-18T14:15:36.743Z,67.40
2022-12-18T14:18:04.270Z,66.71
2022-12-18T14:20:33.469Z,66.77
2022-12-18T14:23:01.126Z,67.84
2022-12-18T14:25:29.175Z,68.35
2022-12-18T14:28:03.706Z,68.75
2022-12-18T14:30:31.802Z,69.76
2022-12-18T14:33:05.418Z,69.69
2022-12-18T14:35:33.709Z,69.19
2022-12-18T14:38:20.479Z,69.65
2022-12-18T14:40:47.064Z,69.66
2022-12-18T14:43:13.810Z,69.64
2022-12-18T14:45:45.270Z,69.26
2022-12-18T14:48:16.281Z,68.82
2022-12-18T14:50:57.514Z,68.75
2022-12-18T14:53:29.131Z,69.18
2022-12-18T14:55:55.614Z,69.62
2022-12-18T14:58:22.829Z,69.89
2022-12-18T15:00:49.414Z,70.26
2022-12-18T15:03:19.033Z,70.10
2022-12-18T15:05:45.711Z,70.33
2022-12-18T15:08:29.205Z,69.29
2022-12-18T15:10:57.381Z,68.19
2022-12-18T15:13:25.544Z,68.52
2022-12-18T15:15:53.107Z,69.40
2022-12-18T15:18:21.936Z,69.05
2022-12-18T15:20:50.049Z,69.23
2022-12-18T15:23:18.464Z,68.50
2022-12-18T15:25:47.709Z,68.35
2022-12-18T15:28:20.476Z,68.50
2022-12-18T15:31:00.795Z,67.72
2022-12-18T15:33:31.136Z,68.33
2022-12-18T15:35:58.816Z,68.33
2022-12-18T15:38:25.349Z,67.88
2022-12-18T15:40:53.187Z,68.58
2022-12-18T15:43:38.827Z,69.89
2022-12-18T15:46:06.466Z,69.04
2022-12-18T15:48:33.923Z,69.92
2022-12-18T15:51:01.005Z,70.21
2022-12-18T15:53:30.061Z,70.67
2022-12-18T15:56:16.663Z,70.52
2022-12-18T15:58:43.457Z,69.96
2022-12-18T16:01:10.644Z,68.94
2022-12-18T16:03:37.250Z,69.55
2022-12-18T16:06:04.111Z,69.88
2022-12-18T16:08:31.163Z,69.04
2022-12-18T16:10:59.193Z,68.29
2022-12-18T16:13:25.721Z,68.40
2022-12-18T16:15:52.439Z,68.11
2022-12-18T16:18:19.021Z,68.14
2022-12-18T16:20:45.736Z,68.11
2022-12-18T16:23:12.286Z,68.30
2022-12-18T16:25:38.843Z,68.07
2022-12-18T16:28:06.918Z,68.26
2022-12-18T16:30:37.981Z,68.36
2022-12-18T16:33:05.228Z,68.81
2022-12-18T16:35:31.762Z,68.85
2022-12-18T16:37:58.225Z,68.84
2022-12-18T16:40:25.601Z,69.01
2022-12-18T16:42:52.119Z,70.19
2022-12-18T16:45:20.079Z,69.32
2022-12-18T16:47:46.617Z,69.43
2022-12-18T16:50:13.137Z,70.07
2022-12-18T16:52:39.741Z,70.15
2022-12-18T16:55:06.430Z,69.42
2022-12-18T16:57:33.020Z,70.17
2022-12-18T17:00:04.639Z,69.59
2022-12-18T17:02:34.204Z,70.29
2022-12-18T17:05:00.935Z,71.00
2022-12-18T17:07:28.497Z,71.18
2022-12-18T17:09:55.222Z,71.42
2022-12-18T17:12:22.069Z,71.43
2022-12-18T17:14:48.568Z,72.13
2022-12-18T17:17:23.559Z,71.74
2022-12-18T17:19:54.514Z,71.90
2022-12-18T17:22:21.160Z,72.17
2022-12-18T17:24:47.673Z,72.13
2022-12-18T17:27:14.191Z,72.25
2022-12-18T17:29:47.451Z,71.81
2022-12-18T17:32:14.716Z,71.83
2022-12-18T17:34:41.292Z,72.06
2022-12-18T17:37:09.148Z,71.56
2022-12-18T17:39:35.803Z,70.41
2022-12-18T17:42:02.335Z,69.73
2022-12-18T17:44:28.887Z,70.74
2022-12-18T17:46:55.409Z,71.65
2022-12-18T17:49:22.021Z,71.52
2022-12-18T17:51:48.796Z,71.88
2022-12-18T17:54:16.762Z,71.88
2022-12-18T17:56:43.273Z,71.76
2022-12-18T17:59:10.581Z,70.71
2022-12-18T18:01:43.713Z,70.83
2022-12-18T18:04:11.559Z,70.31
2022-12-18T18:06:39.036Z,69.50
2022-12-18T18:09:06.127Z,69.37
2022-12-18T18:11:54.761Z,70.21
2022-12-18T18:14:22.762Z,70.46
2022-12-18T18:16:50.389Z,70.24
2022-12-18T18:19:17.775Z,70.69
2022-12-18T18:21:45.093Z,71.10
2022-12-18T18:24:12.792Z,71.32
2022-12-18T18:26:43.988Z,71.82
2022-12-18T18:29:13.382Z,71.59
2022-12-18T18:31:40.751Z,71.14
2022-12-18T18:34:13.816Z,72.14
2022-12-18T18:36:40.373Z,71.76
2022-12-18T18:39:07.098Z,71.60
2022-12-18T18:41:35.441Z,70.76
2022-12-18T18:44:03.586Z,70.90
2022-12-18T18:46:30.150Z,70.73
2022-12-18T18:48:56.645Z,71.06
2022-12-18T18:51:23.138Z,70.36
2022-12-18T18:53:50.849Z,69.40
2022-12-18T18:56:45.396Z,69.28
2022-12-18T18:59:06.368Z,69.47
2022-12-18T19:01:33.365Z,69.04
2022-12-18T19:04:03.277Z,69.39
2022-12-18T19:06:29.952Z,70.36
2022-12-18T19:08:57.920Z,71.01
2022-12-18T19:11:43.722Z,71.04
2022-12-18T19:14:13.006Z,71.56
2022-12-18T19:16:39.711Z,71.72
2022-12-18T19:19:06.673Z,72.26
2022-12-18T19:21:34.141Z,72.17
2022-12-18T19:24:02.933Z,71.00
2022-12-18T19:26:29.555Z,70.99
2022-12-18T19:29:00.239Z,71.08
2022-12-18T19:31:33.398Z,70.91
2022-12-18T19:34:01.677Z,71.42
2022-12-18T19:36:28.957Z,70.95
2022-12-18T19:38:56.765Z,70.17
2022-12-18T19:41:23.985Z,70.05
2022-12-18T19:43:52.562Z,70.02
2022-12-18T19:46:20.243Z,70.16
2022-12-18T19:48:48.293Z,70.74
2022-12-18T19:51:15.901Z,71.17
2022-12-18T19:53:42.520Z,71.63
2022-12-18T19:56:10.152Z,71.64
2022-12-18T19:58:40.005Z,72.01
2022-12-18T20:01:07.149Z,72.34
2022-12-18T20:03:35.612Z,71.56
2022-12-18T20:06:13.803Z,71.34
2022-12-18T20:08:41.354Z,71.46
2022-12-18T20:11:08.321Z,70.91
2022-12-18T20:13:34.833Z,70.52
2022-12-18T20:16:01.968Z,69.60
2022-12-18T20:18:28.543Z,69.31
2022-12-18T20:20:55.465Z,69.18
2022-12-18T20:23:26.395Z,68.22
2022-12-18T20:25:53.798Z,68.28
2022-12-18T20:28:20.533Z,68.23
2022-12-18T20:30:47.339Z,69.37
2022-12-18T20:33:13.989Z,70.19
2022-12-18T20:35:40.924Z,70.28
2022-12-18T20:38:08.064Z,69.30
2022-12-18T20:40:36.911Z,69.47
2022-12-18T20:43:03.466Z,69.84
2022-12-18T20:45:30.000Z,69.74
2022-12-18T20:47:56.752Z,70.03
2022-12-18T20:50:23.245Z,70.67
2022-12-18T20:52:49.733Z,70.08
2022-12-18T20:55:16.438Z,70.90
2022-12-18T20:57:44.309Z,70.53
2022-12-18T21:00:11.560Z,69.95
2022-12-18T21:02:40.316Z,69.90
2022-12-18T21:05:07.323Z,69.57
2022-12-18T21:07:33.822Z,69.41
2022-12-18T21:10:00.359Z,68.97
2022-12-18T21:12:43.964Z,68.51
2022-12-18T21:15:17.552Z,68.55
2022-12-18T21:17:44.486Z,68.69
2022-12-18T21:20:11.868Z,68.69
2022-12-18T21:22:44.172Z,68.94
2022-12-18T21:25:10.750Z,70.22
2022-12-18T21:27:37.322Z,70.52
2022-12-18T21:30:04.086Z,69.75
2022-12-18T21:32:33.456Z,69.36
2022-12-18T21:35:00.223Z,68.95
2022-12-18T21:37:26.704Z,68.44
2022-12-18T21:39:53.199Z,68.78
2022-12-18T21:42:38.503Z,69.55
2022-12-18T21:45:05.251Z,70.33
2022-12-18T21:47:33.120Z,71.40
2022-12-18T21:49:59.666Z,71.38
2022-12-18T21:52:31.662Z,71.11
2022-12-18T21:55:03.081Z,71.25
2022-12-18T21:57:34.780Z,71.70
2022-12-18T22:00:02.156Z,71.28
2022-12-18T22:02:40.020Z,71.39
2022-12-18T22:05:07.126Z,71.27
2022-12-18T22:07:33.725Z,71.43
2022-12-18T22:10:00.214Z,71.45
2022-12-18T22:12:43.180Z,72.31
2022-12-18T22:15:11.180Z,71.86
2022-12-18T22:17:40.686Z,71.79
2022-12-18T22:20:09.216Z,71.76
2022-12-18T22:22:35.716Z,71.45
2022-12-18T22:25:02.288Z,71.49
2022-12-18T22:27:28.779Z,71.38
2022-12-18T22:30:04.251Z,71.60
2022-12-18T22:32:31.706Z,71.44
2022-12-18T22:35:05.846Z,71.43
2022-12-18T22:37:34.839Z,71.33
2022-12-18T22:40:03.110Z,71.39
2022-12-18T22:42:31.335Z,71.37
2022-12-18T22:44:57.922Z,71.37
2022-12-18T22:47:29.401Z,71.59
2022-12-18T22:49:56.745Z,71.34
2022-12-18T22:52:24.985Z,71.15
2022-12-18T22:54:51.622Z,71.22
2022-12-18T22:57:20.267Z,71.64
2022-12-18T22:59:46.790Z,71.24
2022-12-18T23:02:13.403Z,71.37
2022-12-18T23:04:40.087Z,71.33
2022-12-18T23:07:07.427Z,71.41
2022-12-18T23:09:35.483Z,71.02
2022-12-18T23:12:02.018Z,70.34
2022-12-18T23:14:31.777Z,70.06
2022-12-18T23:16:58.254Z,69.85
2022-12-18T23:19:24.892Z,68.93
2022-12-18T23:21:51.698Z,67.72
2022-12-18T23:24:18.418Z,67.67
2022-12-18T23:26:46.399Z,67.86
2022-12-18T23:29:12.852Z,67.62
2022-12-18T23:31:39.535Z,67.47
2022-12-18T23:34:06.440Z,67.40
2022-12-18T23:36:38.407Z,67.99
2022-12-18T23:39:17.466Z,68.44
2022-12-18T23:41:57.054Z,68.92
2022-12-18T23:44:23.689Z,69.30
2022-12-18T23:46:50.287Z,69.57
2022-12-18T23:49:16.899Z,69.90
2022-12-18T23:51:43.416Z,70.22
2022-12-18T23:54:10.099Z,70.16
2022-12-18T23:56:36.585Z,70.27
2022-12-18T23:59:04.638Z,70.00
